Time;durP1;ratioP1;P1;durP2;ratioP2;P2;SDS_P1;SDS_P2;PMS_P1;PMS_P2;Temp;Humidity;BMP_temperature;BMP_pressure;BME280_temperature;BME280_humidity;BME280_pressure;Samples;Min_cycle;Max_cycle;Signal;HPM_P1;HPM_P2
2022/12/11 00:01:44;;;;;;;;;6.00;6.00;;;;;24.58;33.41;100950.84;5058988;28;45935;-75
2022/12/11 00:04:10;;;;;;;;;4.33;4.33;;;;;24.56;33.50;100950.19;5059786;27;45924;-75
2022/12/11 00:06:35;;;;;;;;;8.00;8.00;;;;;24.55;33.26;100953.91;5060042;28;45499;-75
2022/12/11 00:09:01;;;;;;;;;5.00;5.00;;;;;24.47;33.25;100947.47;5053975;28;47003;-74
2022/12/11 00:11:26;;;;;;;;;5.33;5.00;;;;;24.50;33.38;100948.13;5056723;27;45608;-75
2022/12/11 00:13:51;;;;;;;;;5.33;5.00;;;;;24.46;33.37;100934.06;5057689;28;46749;-74
2022/12/11 00:16:17;;;;;;;;;6.33;6.33;;;;;24.46;33.44;100931.34;5058183;27;45621;-74
2022/12/11 00:18:43;;;;;;;;;5.00;5.00;;;;;24.43;33.34;100923.53;5056365;28;46075;-74
2022/12/11 00:21:13;;;;;;;;;4.33;4.33;;;;;24.45;33.48;100935.91;5063137;28;46010;-75
2022/12/11 00:23:39;;;;;;;;;3.33;3.33;;;;;24.41;33.60;100925.59;5062523;28;45443;-74
2022/12/11 00:26:10;;;;;;;;;3.67;3.67;;;;;24.42;33.43;100933.56;5069412;27;45447;-74
2022/12/11 00:28:36;;;;;;;;;6.00;6.00;;;;;24.40;33.43;100930.16;5070270;27;45571;-74
2022/12/11 00:31:06;;;;;;;;;4.00;4.00;;;;;24.39;33.55;100922.22;5057659;28;45370;-74
2022/12/11 00:33:31;;;;;;;;;5.67;5.67;;;;;24.32;33.42;100917.44;5058305;28;45409;-73
2022/12/11 00:35:57;;;;;;;;;6.67;5.00;;;;;24.32;33.36;100914.75;5044148;27;45434;-74
2022/12/11 00:38:22;;;;;;;;;4.67;4.00;;;;;24.33;33.46;100923.72;5055728;28;46799;-74
2022/12/11 00:40:48;;;;;;;;;4.67;4.67;;;;;24.23;33.58;100907.63;5058166;28;46093;-75
2022/12/11 00:43:14;;;;;;;;;6.00;6.00;;;;;24.31;33.20;100920.31;5056186;28;45677;-75
2022/12/11 00:45:41;;;;;;;;;5.00;5.00;;;;;24.21;33.40;100901.53;5064071;27;45528;-74
2022/12/11 00:48:08;;;;;;;;;4.00;4.00;;;;;24.23;33.50;100906.78;5060822;28;45974;-75
2022/12/11 00:50:34;;;;;;;;;5.00;5.00;;;;;24.23;33.42;100914.94;5061944;28;45452;-75
2022/12/11 00:52:59;;;;;;;;;6.00;5.67;;;;;24.24;33.60;100913.91;5059024;27;45488;-75
2022/12/11 00:55:27;;;;;;;;;4.00;4.00;;;;;24.22;33.31;100911.34;5066266;28;45407;-76
2022/12/11 00:57:53;;;;;;;;;5.67;5.67;;;;;24.20;33.52;100902.56;5061112;28;45821;-73
2022/12/11 01:00:19;;;;;;;;;5.00;5.00;;;;;24.19;33.66;100907.13;5062213;28;45516;-73
2022/12/11 01:02:44;;;;;;;;;5.00;5.00;;;;;24.20;33.37;100910.69;5058931;27;45532;-74
2022/12/11 01:05:10;;;;;;;;;4.67;4.67;;;;;24.15;33.44;100900.34;5063694;27;45362;-74
2022/12/11 01:07:35;;;;;;;;;4.00;4.00;;;;;24.17;33.10;100902.88;5059376;28;46235;-75
2022/12/11 01:12:45;;;;;;;;;4.00;4.00;;;;;24.15;33.16;100902.22;5062651;28;45410;-75
2022/12/11 01:15:10;;;;;;;;;4.00;4.00;;;;;24.15;33.61;100902.22;5065359;28;45891;-75
2022/12/11 01:17:36;;;;;;;;;5.00;5.00;;;;;24.09;33.15;100898.31;5060789;28;45482;-74
2022/12/11 01:20:03;;;;;;;;;7.33;6.00;;;;;24.15;33.37;100896.78;5066381;27;45333;-75
2022/12/11 01:22:28;;;;;;;;;4.00;4.00;;;;;24.12;33.48;100900.69;5060478;28;45429;-74
2022/12/11 01:24:54;;;;;;;;;3.33;3.33;;;;;24.11;33.53;100901.69;5066887;28;45403;-75
2022/12/11 01:27:19;;;;;;;;;4.00;4.00;;;;;24.07;33.18;100897.56;5060264;28;46765;-75
2022/12/11 01:29:45;;;;;;;;;4.33;3.00;;;;;24.06;33.33;100895.88;5061669;28;45500;-75
2022/12/11 01:32:10;;;;;;;;;4.00;4.00;;;;;24.10;33.22;100910.00;5059884;28;45416;-75
2022/12/11 01:34:35;;;;;;;;;3.00;3.00;;;;;24.05;33.46;100896.91;5061684;27;45434;-75
2022/12/11 01:37:00;;;;;;;;;4.67;3.00;;;;;24.08;33.39;100904.72;5059618;28;45442;-75
2022/12/11 01:39:26;;;;;;;;;6.00;4.00;;;;;24.03;33.50;100902.50;5060624;28;45488;-74
2022/12/11 01:41:59;;;;;;;;;3.00;3.00;;;;;24.06;33.30;100904.03;5059791;28;45349;-74
2022/12/11 01:44:24;;;;;;;;;4.00;4.00;;;;;24.05;33.42;100903.19;5058340;28;45866;-74
2022/12/11 01:46:50;;;;;;;;;3.00;3.00;;;;;24.05;33.48;100910.47;5065174;27;46085;-74
2022/12/11 01:49:17;;;;;;;;;5.00;5.00;;;;;24.03;33.66;100918.75;5057158;28;45548;-74
2022/12/11 01:51:57;;;;;;;;;4.00;4.00;;;;;24.03;33.33;100926.06;5061917;27;45499;-74
2022/12/11 01:54:25;;;;;;;;;2.33;2.33;;;;;23.93;33.31;100910.81;5058456;27;45794;-74
2022/12/11 01:56:53;;;;;;;;;3.33;3.33;;;;;24.00;33.56;100920.97;5060648;28;45659;-74
2022/12/11 01:59:24;;;;;;;;;3.00;3.00;;;;;23.99;33.25;100917.41;5057940;28;45585;-74
2022/12/11 02:01:58;;;;;;;;;4.00;4.00;;;;;23.99;33.26;100911.97;5073172;27;45481;-76
2022/12/11 02:04:24;;;;;;;;;4.00;3.67;;;;;23.97;33.79;100907.75;5075659;28;45561;-73
2022/12/11 02:06:52;;;;;;;;;4.33;2.33;;;;;23.91;33.68;100893.84;5074934;28;46345;-73
2022/12/11 02:09:37;;;;;;;;;4.00;4.00;;;;;23.99;33.36;100908.44;5075275;28;45467;-73
2022/12/11 02:12:02;;;;;;;;;4.33;3.00;;;;;23.98;33.01;100913.00;5066130;28;45492;-73
2022/12/11 02:14:35;;;;;;;;;3.33;3.33;;;;;23.98;33.35;100902.16;5075541;27;45448;-73
2022/12/11 02:17:10;;;;;;;;;3.00;3.00;;;;;23.98;33.11;100915.72;5073952;28;46512;-73
2022/12/11 02:20:02;;;;;;;;;4.00;4.00;;;;;23.97;33.45;100892.34;5073935;28;45528;-73
2022/12/11 02:22:55;;;;;;;;;5.33;3.67;;;;;23.96;33.32;100893.34;5070578;27;45412;-73
2022/12/11 02:25:56;;;;;;;;;3.00;3.00;;;;;23.95;33.23;100892.50;5075271;28;45452;-72
2022/12/11 02:29:00;;;;;;;;;2.67;2.67;;;;;23.92;32.84;100884.69;5054155;28;46601;-73
2022/12/11 02:31:29;;;;;;;;;2.67;2.67;;;;;23.91;33.41;100880.28;5070661;28;46622;-72
2022/12/11 02:34:14;;;;;;;;;4.00;3.67;;;;;23.90;33.31;100886.72;5072455;28;45465;-73
2022/12/11 02:36:44;;;;;;;;;3.00;3.00;;;;;23.89;33.21;100889.59;5073976;28;45511;-72
2022/12/11 02:39:13;;;;;;;;;2.67;2.67;;;;;23.89;33.41;100886.88;5062579;28;46334;-73
2022/12/11 02:41:47;;;;;;;;;3.67;3.67;;;;;23.88;33.40;100888.78;5077955;27;45888;-73
2022/12/11 02:44:16;;;;;;;;;3.00;3.00;;;;;23.86;33.10;100879.94;5074927;27;45312;-73
2022/12/11 02:46:43;;;;;;;;;3.00;3.00;;;;;23.86;33.12;100892.66;5053312;28;45650;-72
2022/12/11 02:49:11;;;;;;;;;5.00;3.33;;;;;23.85;33.40;100885.53;5062174;28;46539;-73
2022/12/11 02:51:40;;;;;;;;;3.00;3.00;;;;;23.82;33.23;100881.28;5061949;28;45526;-73
2022/12/11 02:54:19;;;;;;;;;4.00;4.00;;;;;23.81;33.36;100875.03;5072731;28;45395;-73
2022/12/11 02:57:03;;;;;;;;;4.00;4.00;;;;;23.82;32.97;100874.00;5075551;27;45465;-74
2022/12/11 02:59:40;;;;;;;;;3.00;3.00;;;;;23.82;33.00;100871.31;5075403;27;45763;-73
2022/12/11 03:02:06;;;;;;;;;0.00;0.00;;;;;23.81;33.55;100866.91;5055094;28;45477;-73
2022/12/11 03:04:35;;;;;;;;;3.00;3.00;;;;;23.77;32.96;100865.53;5075173;28;45376;-73
2022/12/11 03:07:10;;;;;;;;;2.67;2.67;;;;;23.81;33.34;100869.63;5069512;28;45404;-73
2022/12/11 03:09:38;;;;;;;;;2.00;1.00;;;;;23.80;33.39;100862.47;5054176;28;46293;-73
2022/12/11 03:12:04;;;;;;;;;2.00;2.00;;;;;23.80;32.95;100864.38;5070790;28;46094;-73
2022/12/11 03:14:30;;;;;;;;;2.33;2.33;;;;;23.76;33.10;100858.44;5072938;28;45388;-74
2022/12/11 03:16:59;;;;;;;;;1.67;1.67;;;;;23.78;33.18;100867.22;5063754;28;45506;-73
2022/12/11 03:19:52;;;;;;;;;4.00;2.33;;;;;23.76;33.21;100873.84;5055066;28;45742;-73
2022/12/11 03:22:35;;;;;;;;;4.33;2.00;;;;;23.77;33.36;100865.53;5074207;28;45579;-73
2022/12/11 03:25:06;;;;;;;;;2.67;2.67;;;;;23.72;33.34;100865.19;5079123;27;45521;-73
2022/12/11 03:27:50;;;;;;;;;3.00;3.00;;;;;23.75;33.51;100870.25;5071629;28;45422;-74
2022/12/11 03:30:21;;;;;;;;;2.00;2.00;;;;;23.74;33.04;100871.28;5056346;28;48170;-74
2022/12/11 03:32:52;;;;;;;;;2.00;2.00;;;;;23.72;33.16;100859.78;5071211;27;45459;-74
2022/12/11 03:35:39;;;;;;;;;3.67;2.00;;;;;23.71;33.33;100862.66;5077140;27;45641;-74
2022/12/11 03:38:10;;;;;;;;;2.67;2.33;;;;;23.72;33.10;100865.19;5052408;28;45764;-74
2022/12/11 03:40:39;;;;;;;;;2.00;2.00;;;;;23.71;33.26;100868.06;5074959;28;46342;-74
2022/12/11 03:43:06;;;;;;;;;2.67;2.67;;;;;23.69;33.53;100855.53;5052601;28;45414;-74
2022/12/11 03:45:33;;;;;;;;;3.00;3.00;;;;;23.68;33.27;100858.41;5074181;28;45419;-74
2022/12/11 03:48:01;;;;;;;;;2.00;2.00;;;;;23.60;32.89;100851.13;5062537;28;45609;-74
2022/12/11 03:50:30;;;;;;;;;3.00;3.00;;;;;23.67;32.50;100859.44;5074120;27;45353;-74
2022/12/11 03:52:57;;;;;;;;;3.33;3.00;;;;;23.66;33.01;100866.69;5074191;28;45606;-74
2022/12/11 03:55:25;;;;;;;;;2.00;2.00;;;;;23.65;33.14;100865.00;5072354;28;45618;-74
2022/12/11 03:57:50;;;;;;;;;3.00;3.00;;;;;23.66;33.14;100873.97;5062814;27;45749;-74
2022/12/11 04:00:18;;;;;;;;;3.00;3.00;;;;;23.67;32.98;100873.81;5073987;28;45360;-73
2022/12/11 04:02:43;;;;;;;;;2.00;2.00;;;;;23.66;33.10;100865.84;5069025;27;45797;-73
2022/12/11 04:05:10;;;;;;;;;1.00;1.00;;;;;23.63;32.75;100863.50;5074623;28;45446;-74
2022/12/11 04:07:35;;;;;;;;;2.00;2.00;;;;;23.61;32.92;100855.53;5067678;28;45554;-74
2022/12/11 04:10:02;;;;;;;;;2.67;2.67;;;;;23.59;33.23;100848.56;5081782;27;46303;-75
2022/12/11 04:12:27;;;;;;;;;2.33;2.33;;;;;23.59;33.23;100848.56;5068316;28;45359;-74
2022/12/11 04:15:01;;;;;;;;;3.67;2.33;;;;;23.61;33.31;100857.38;5073720;28;47856;-74
2022/12/11 04:25:47;;;;;;;;;2.00;2.00;;;;;23.60;32.97;100848.41;5074352;28;45475;-74
2022/12/11 04:28:13;;;;;;;;;3.00;1.00;;;;;23.58;33.17;100834.16;5076980;28;45411;-74
2022/12/11 04:30:38;;;;;;;;;1.00;1.00;;;;;23.62;33.03;100835.53;5075128;27;45467;-73
2022/12/11 04:33:03;;;;;;;;;3.33;3.00;;;;;23.61;33.28;100831.13;5066451;28;45384;-74
2022/12/11 04:35:29;;;;;;;;;2.00;2.00;;;;;23.58;33.01;100831.47;5076921;27;45434;-74
2022/12/11 04:37:54;;;;;;;;;1.67;1.67;;;;;23.56;33.28;100828.09;5068998;28;45448;-74
2022/12/11 04:40:20;;;;;;;;;5.00;2.00;;;;;23.59;32.88;100837.75;5073981;28;46358;-74
2022/12/11 04:42:45;;;;;;;;;1.33;1.33;;;;;23.61;33.10;100823.00;5055830;28;45540;-74
2022/12/11 04:45:11;;;;;;;;;2.00;2.00;;;;;23.67;32.71;100829.63;5073357;27;45529;-74
2022/12/11 04:47:38;;;;;;;;;1.00;1.00;;;;;23.68;32.85;100826.75;5070430;28;45456;-74
2022/12/11 04:50:06;;;;;;;;;2.00;2.00;;;;;23.73;33.33;100826.25;5070786;27;45583;-74
2022/12/11 04:52:31;;;;;;;;;1.67;1.67;;;;;23.71;33.14;100817.44;5061402;28;45226;-74
2022/12/11 04:54:57;;;;;;;;;2.00;2.00;;;;;23.76;33.10;100811.50;5074670;28;45785;-74
2022/12/11 04:57:22;;;;;;;;;3.00;2.00;;;;;23.77;32.78;100810.47;5077773;27;45551;-74
2022/12/11 04:59:48;;;;;;;;;0.00;0.00;;;;;23.69;32.99;100804.06;5077355;28;45453;-74
2022/12/11 05:02:14;;;;;;;;;2.00;2.00;;;;;23.74;32.91;100813.56;5070877;28;45467;-74
2022/12/11 05:04:40;;;;;;;;;2.00;2.00;;;;;23.76;33.05;100817.78;5077512;27;45781;-74
2022/12/11 05:07:05;;;;;;;;;1.50;1.50;;;;;23.75;33.19;100809.81;5075097;28;45718;-74
2022/12/11 05:09:31;;;;;;;;;2.00;2.00;;;;;23.74;33.16;100808.97;5073477;28;46589;-74
2022/12/11 05:11:56;;;;;;;;;2.00;2.00;;;;;23.76;32.78;100815.06;5076866;27;45533;-74
2022/12/11 05:14:21;;;;;;;;;3.00;2.00;;;;;23.78;33.08;100807.59;5073518;27;45744;-75
2022/12/11 05:16:47;;;;;;;;;1.33;1.33;;;;;23.82;33.14;100808.97;5068678;28;45606;-74
2022/12/11 05:19:12;;;;;;;;;3.00;3.00;;;;;23.81;32.91;100801.00;5074749;28;45599;-74
2022/12/11 05:21:38;;;;;;;;;2.00;2.00;;;;;23.82;33.44;100800.84;5077451;28;45377;-74
2022/12/11 05:24:05;;;;;;;;;2.00;2.00;;;;;23.88;33.07;100806.59;5075880;28;45434;-74
2022/12/11 05:26:30;;;;;;;;;2.67;2.00;;;;;23.92;32.86;100813.38;5077466;27;45819;-74
2022/12/11 05:28:55;;;;;;;;;2.00;2.00;;;;;23.94;33.07;100814.03;5064220;28;46107;-74
2022/12/11 05:31:24;;;;;;;;;2.00;2.00;;;;;23.98;33.02;100809.16;5069430;28;45487;-75
2022/12/11 05:33:51;;;;;;;;;3.67;3.00;;;;;24.01;32.92;100817.78;5067606;28;45513;-74
2022/12/11 05:36:20;;;;;;;;;2.00;2.00;;;;;23.99;32.92;100800.00;5073074;28;45387;-74
2022/12/11 05:38:45;;;;;;;;;2.00;2.00;;;;;24.04;32.97;100811.16;5070769;28;45557;-74
2022/12/11 05:41:13;;;;;;;;;2.00;2.00;;;;;24.07;32.96;100810.81;5072386;27;45610;-73
2022/12/11 05:43:39;;;;;;;;;1.00;1.00;;;;;24.11;32.71;100804.06;5076327;28;45943;-75
2022/12/11 05:46:10;;;;;;;;;2.67;2.33;;;;;24.14;32.62;100806.44;5074534;28;45499;-74
2022/12/11 05:48:37;;;;;;;;;3.67;2.00;;;;;24.18;33.10;100804.22;5076943;28;45467;-73
2022/12/11 05:51:03;;;;;;;;;1.33;1.33;;;;;24.20;32.92;100807.63;5066366;28;45427;-74
2022/12/11 05:53:29;;;;;;;;;3.33;3.33;;;;;24.21;32.83;100802.00;5085455;27;45547;-74
2022/12/11 05:56:02;;;;;;;;;2.67;2.67;;;;;24.23;32.96;100804.56;5067546;27;45631;-73
2022/12/11 05:58:27;;;;;;;;;2.00;2.00;;;;;24.22;33.25;100800.16;5074859;28;46198;-74
2022/12/11 06:00:52;;;;;;;;;3.00;3.00;;;;;24.28;32.86;100799.47;5075119;27;45563;-74
2022/12/11 06:03:18;;;;;;;;;2.67;2.00;;;;;24.29;33.04;100800.31;5074160;28;45424;-73
2022/12/11 06:05:43;;;;;;;;;3.00;1.00;;;;;24.29;32.81;100792.19;5067850;27;45458;-74
2022/12/11 06:08:09;;;;;;;;;2.00;2.00;;;;;24.30;32.96;100799.28;5073730;28;46188;-73
2022/12/11 06:10:34;;;;;;;;;1.00;1.00;;;;;24.30;32.71;100797.44;5071539;28;46656;-74
2022/12/11 06:13:00;;;;;;;;;4.33;3.00;;;;;24.36;32.92;100795.06;5065453;28;45482;-74
2022/12/11 06:15:26;;;;;;;;;2.00;2.00;;;;;24.36;32.66;100803.19;5068655;28;45485;-74
2022/12/11 06:17:51;;;;;;;;;4.00;4.00;;;;;24.34;32.90;100789.81;5064825;28;45792;-74
2022/12/11 06:20:16;;;;;;;;;2.67;2.67;;;;;24.35;32.78;100788.78;5068696;27;45443;-74
2022/12/11 06:22:42;;;;;;;;;4.00;2.67;;;;;24.37;32.63;100791.31;5076606;28;45460;-73
2022/12/11 06:25:08;;;;;;;;;2.00;2.00;;;;;24.36;32.81;100785.03;5067147;27;45490;-73
2022/12/11 06:27:34;;;;;;;;;3.00;3.00;;;;;24.27;32.72;100769.84;5063436;28;45521;-74
2022/12/11 06:29:59;;;;;;;;;2.67;2.33;;;;;24.34;32.58;100782.53;5072995;28;45705;-73
2022/12/11 06:32:24;;;;;;;;;2.33;2.33;;;;;24.34;32.71;100784.38;5051697;27;46886;-73
2022/12/11 06:34:49;;;;;;;;;2.00;2.00;;;;;24.30;32.69;100780.31;5065378;27;46973;-73
2022/12/11 06:37:15;;;;;;;;;2.67;2.67;;;;;24.31;32.79;100782.84;5069289;28;45470;-74
2022/12/11 06:39:40;;;;;;;;;3.67;3.67;;;;;24.31;32.71;100779.28;5071222;28;46005;-74
2022/12/11 06:42:05;;;;;;;;;2.33;2.33;;;;;24.28;32.64;100772.34;5062840;27;45372;-74
2022/12/11 06:44:31;;;;;;;;;3.00;3.00;;;;;24.25;33.10;100771.84;5069125;28;45469;-74
2022/12/11 06:46:56;;;;;;;;;4.67;3.00;;;;;24.25;32.66;100766.44;5075335;27;45473;-73
2022/12/11 06:49:22;;;;;;;;;2.67;2.67;;;;;24.27;32.85;100770.66;5071243;27;45528;-74
2022/12/11 06:51:47;;;;;;;;;2.33;2.33;;;;;24.28;33.13;100768.81;5062609;28;45594;-73
2022/12/11 06:54:12;;;;;;;;;3.00;3.00;;;;;24.29;32.65;100765.06;5075711;28;45475;-73
2022/12/11 06:56:38;;;;;;;;;3.00;3.00;;;;;24.24;32.95;100752.03;5074008;28;46516;-74
2022/12/11 06:59:03;;;;;;;;;4.00;4.00;;;;;24.27;32.63;100756.28;5075522;28;45496;-74
2022/12/11 07:01:28;;;;;;;;;4.00;3.00;;;;;24.27;32.78;100756.28;5069906;28;45645;-74
2022/12/11 07:03:56;;;;;;;;;3.00;3.00;;;;;24.29;32.78;100757.78;5066771;27;45411;-74
2022/12/11 07:06:23;;;;;;;;;4.33;4.00;;;;;24.28;32.63;100757.97;5055720;28;47113;-73
2022/12/11 07:08:49;;;;;;;;;4.00;4.00;;;;;24.27;32.71;100756.28;5062748;28;45808;-73
2022/12/11 07:11:16;;;;;;;;;3.00;3.00;;;;;24.29;32.52;100762.34;5068239;28;45391;-73
2022/12/11 07:13:42;;;;;;;;;6.00;5.67;;;;;24.36;32.71;100766.03;5075552;27;45766;-73
2022/12/11 07:16:12;;;;;;;;;4.67;3.00;;;;;24.30;32.85;100754.06;5067381;28;45666;-74
2022/12/11 07:18:39;;;;;;;;;3.00;3.00;;;;;24.42;32.72;100770.81;5072536;28;45868;-73
2022/12/11 07:21:05;;;;;;;;;4.00;4.00;;;;;24.44;32.73;100762.50;5073288;28;45494;-73
2022/12/11 07:23:31;;;;;;;;;5.33;4.00;;;;;24.47;32.71;100770.25;5064412;28;45451;-74
2022/12/11 07:25:56;;;;;;;;;4.00;4.00;;;;;24.51;32.74;100768.91;5053622;28;46207;-73
2022/12/11 07:28:22;;;;;;;;;3.00;3.00;;;;;24.54;32.68;100774.00;5062940;27;45457;-73
2022/12/11 07:30:47;;;;;;;;;3.00;3.00;;;;;24.57;32.57;100780.94;5070524;28;45810;-73
2022/12/11 07:33:13;;;;;;;;;4.00;4.00;;;;;24.56;32.63;100773.81;5071819;28;45510;-72
2022/12/11 07:35:38;;;;;;;;;5.67;5.67;;;;;24.60;32.79;100780.56;5064103;28;46231;-73
2022/12/11 07:38:04;;;;;;;;;3.67;3.33;;;;;24.58;32.60;100778.03;5067438;28;45479;-75
2022/12/11 07:40:29;;;;;;;;;6.00;5.00;;;;;24.61;32.70;100782.28;5070179;27;45501;-71
2022/12/11 07:42:54;;;;;;;;;5.00;5.00;;;;;24.62;32.90;100781.25;5075956;27;45472;-71
2022/12/11 07:45:20;;;;;;;;;6.00;4.00;;;;;24.66;32.63;100781.75;5065297;27;45825;-72
2022/12/11 07:47:45;;;;;;;;;4.67;4.00;;;;;24.62;32.54;100775.81;5063652;27;45505;-71
2022/12/11 07:50:10;;;;;;;;;5.67;5.67;;;;;24.66;32.68;100785.31;5062209;28;45482;-72
2022/12/11 07:52:36;;;;;;;;;6.67;5.33;;;;;24.64;32.46;100773.75;5062273;27;45627;-71
2022/12/11 07:55:02;;;;;;;;;7.67;7.00;;;;;24.64;32.75;100781.09;5061748;28;45528;-72
2022/12/11 07:57:28;;;;;;;;;4.33;4.33;;;;;24.56;32.73;100768.38;5053752;28;45742;-72
2022/12/11 07:59:54;;;;;;;;;5.33;5.33;;;;;24.55;32.51;100772.97;5061101;27;45547;-71
2022/12/11 08:02:20;;;;;;;;;5.33;5.33;;;;;24.58;32.56;100778.03;5055431;27;45797;-71
2022/12/11 08:04:48;;;;;;;;;7.33;5.67;;;;;24.50;32.40;100769.06;5063315;28;46487;-71
2022/12/11 08:07:14;;;;;;;;;5.00;4.67;;;;;24.58;32.46;100786.19;5057653;27;45740;-72
2022/12/11 08:09:39;;;;;;;;;5.33;5.33;;;;;24.55;32.77;100783.81;5062688;27;45823;-72
2022/12/11 08:12:05;;;;;;;;;5.33;4.67;;;;;24.55;33.00;100786.53;5061050;27;46672;-71
2022/12/11 08:14:30;;;;;;;;;3.00;3.00;;;;;24.55;32.90;100785.66;5051470;28;47093;-72
2022/12/11 08:16:56;;;;;;;;;7.00;4.00;;;;;24.56;32.79;100792.81;5059519;27;45765;-71
2022/12/11 08:19:22;;;;;;;;;5.00;5.00;;;;;24.59;32.86;100796.00;5061812;27;45666;-72
2022/12/11 08:21:47;;;;;;;;;5.00;5.00;;;;;24.55;32.73;100774.81;5060028;27;45678;-71
2022/12/11 08:24:15;;;;;;;;;4.67;4.67;;;;;24.63;33.16;100791.06;5042375;27;46280;-72
2022/12/11 08:26:40;;;;;;;;;4.33;4.33;;;;;24.66;32.82;100789.88;5060185;27;45521;-72
2022/12/11 08:29:06;;;;;;;;;5.33;3.67;;;;;24.64;33.19;100783.78;5060059;27;45561;-71
2022/12/11 08:31:32;;;;;;;;;6.67;6.67;;;;;24.67;32.85;100789.72;5060055;28;45626;-71
2022/12/11 08:33:57;;;;;;;;;5.33;3.67;;;;;24.66;32.64;100790.75;5043051;28;45466;-70
2022/12/11 08:36:23;;;;;;;;;5.67;5.00;;;;;24.68;32.82;100794.09;5061545;28;45570;-71
2022/12/11 08:38:49;;;;;;;;;3.67;3.67;;;;;24.65;32.79;100799.03;5059624;27;45437;-71
2022/12/11 08:41:29;;;;;;;;;7.00;6.00;;;;;24.61;32.80;100801.28;5058385;28;45412;-72
2022/12/11 08:43:56;;;;;;;;;6.00;4.33;;;;;24.59;32.79;100792.44;5042449;28;46324;-71
2022/12/11 08:46:25;;;;;;;;;7.00;5.67;;;;;24.54;32.67;100789.41;5058176;28;45527;-71
2022/12/11 08:48:51;;;;;;;;;10.00;6.67;;;;;24.51;32.79;100790.59;5057217;28;45519;-72
2022/12/11 08:51:19;;;;;;;;;7.67;4.67;;;;;24.41;32.88;100781.81;5063192;27;45738;-71
2022/12/11 08:53:45;;;;;;;;;10.67;8.00;;;;;24.37;32.91;100781.31;5069718;27;45534;-71
2022/12/11 08:56:13;;;;;;;;;7.67;7.67;;;;;24.41;32.74;100784.53;5071435;27;45834;-72
2022/12/11 08:58:39;;;;;;;;;9.00;7.00;;;;;24.41;33.13;100781.81;5073393;28;45492;-74
2022/12/11 09:01:10;;;;;;;;;8.33;7.00;;;;;24.37;32.87;100783.19;5073287;27;45487;-74
2022/12/11 09:03:36;;;;;;;;;6.67;5.33;;;;;24.40;32.53;100789.09;5074229;28;45602;-73
2022/12/11 09:06:06;;;;;;;;;7.00;7.00;;;;;24.39;32.82;100794.72;5074801;28;45679;-73
2022/12/11 09:08:32;;;;;;;;;7.33;7.33;;;;;24.39;32.98;100792.84;5076380;28;45432;-73
2022/12/11 09:11:03;;;;;;;;;8.67;8.67;;;;;24.39;32.80;100790.13;5075333;27;45336;-73
2022/12/11 09:13:28;;;;;;;;;7.00;7.00;;;;;24.40;33.08;100780.97;5063419;28;46211;-74
2022/12/11 09:15:54;;;;;;;;;11.67;10.00;;;;;24.45;33.06;100783.16;5071964;28;45519;-73
2022/12/11 09:18:19;;;;;;;;;10.33;10.33;;;;;24.42;33.00;100773.50;5057559;28;45704;-73
2022/12/11 09:20:44;;;;;;;;;10.33;8.00;;;;;24.45;32.81;100777.75;5075658;27;45500;-73
2022/12/11 09:23:10;;;;;;;;;7.00;7.00;;;;;24.46;33.13;100782.13;5063836;27;46841;-74
2022/12/11 09:25:39;;;;;;;;;10.33;10.33;;;;;24.48;33.08;100791.78;5079615;27;46842;-74
2022/12/11 09:28:04;;;;;;;;;10.33;9.00;;;;;24.42;32.75;100786.22;5078551;27;45396;-72
2022/12/11 09:30:29;;;;;;;;;11.33;9.33;;;;;24.40;32.52;100786.38;5075560;27;45498;-72
2022/12/11 09:32:55;;;;;;;;;9.67;9.33;;;;;24.40;32.87;100786.38;5075976;28;45408;-73
2022/12/11 09:35:20;;;;;;;;;11.33;9.33;;;;;24.46;32.88;100795.72;5076298;28;45503;-75
2022/12/11 09:37:45;;;;;;;;;12.67;9.00;;;;;24.45;32.80;100791.31;5070538;28;45465;-70
2022/12/11 09:40:12;;;;;;;;;11.67;11.67;;;;;24.45;32.85;100796.72;5072690;28;45745;-72
2022/12/11 09:42:57;;;;;;;;;14.00;10.67;;;;;24.48;32.61;100793.66;5072956;27;46146;-72
2022/12/11 09:45:23;;;;;;;;;11.33;9.67;;;;;24.48;32.76;100799.06;5076035;27;45498;-72
2022/12/11 09:47:54;;;;;;;;;13.33;11.33;;;;;24.51;32.68;100798.75;5076507;28;45646;-72
2022/12/11 09:50:26;;;;;;;;;13.33;10.33;;;;;24.52;32.96;100808.56;5078644;27;45432;-72
2022/12/11 09:52:51;;;;;;;;;12.00;12.00;;;;;24.54;32.80;100809.25;5083587;27;46445;-72
2022/12/11 09:55:23;;;;;;;;;10.67;10.67;;;;;24.52;32.84;100811.28;5057696;28;45459;-73
2022/12/11 09:58:00;;;;;;;;;11.00;11.00;;;;;24.50;32.62;100802.47;5075305;28;45368;-72
2022/12/11 10:00:30;;;;;;;;;12.33;10.67;;;;;24.43;32.49;100799.63;5056219;28;46800;-73
2022/12/11 10:03:02;;;;;;;;;9.00;8.00;;;;;24.39;32.53;100803.69;5066705;28;45837;-72
2022/12/11 10:05:36;;;;;;;;;11.00;11.00;;;;;24.36;32.54;100795.06;5061385;28;45445;-72
2022/12/11 10:08:10;;;;;;;;;10.00;8.67;;;;;24.32;32.79;100791.84;5050843;28;45549;-72
2022/12/11 10:10:51;;;;;;;;;16.00;15.00;;;;;24.38;32.81;100798.44;5065817;27;45419;-73
2022/12/11 10:13:57;;;;;;;;;10.00;10.00;;;;;24.38;32.60;100787.59;5072242;27;46399;-73
2022/12/11 10:16:39;;;;;;;;;11.67;10.67;;;;;24.41;32.51;100785.38;5068415;28;46551;-72
2022/12/11 10:19:07;;;;;;;;;9.67;9.00;;;;;24.42;32.50;100781.66;5049243;28;45519;-72
2022/12/11 10:21:42;;;;;;;;;13.67;10.00;;;;;24.42;32.70;100773.50;5072481;27;45467;-72
2022/12/11 10:24:26;;;;;;;;;10.67;9.67;;;;;24.45;32.72;100773.16;5049097;27;47482;-72
2022/12/11 10:26:57;;;;;;;;;10.00;10.00;;;;;24.48;32.73;100777.38;5066749;27;46267;-73
2022/12/11 10:29:23;;;;;;;;;9.67;9.67;;;;;24.48;32.73;100775.53;5066667;27;45884;-72
2022/12/11 10:31:55;;;;;;;;;12.00;7.67;;;;;24.51;32.34;100774.31;5062815;28;45837;-73
2022/12/11 10:34:30;;;;;;;;;11.00;11.00;;;;;24.48;32.44;100771.94;5065510;27;46359;-70
2022/12/11 10:36:55;;;;;;;;;11.00;11.00;;;;;24.45;32.38;100754.16;5062397;27;45799;-72
2022/12/11 10:39:21;;;;;;;;;12.67;11.33;;;;;24.50;32.43;100769.94;5055784;27;45508;-72
2022/12/11 10:41:49;;;;;;;;;15.33;14.33;;;;;24.47;32.26;100776.56;5064254;27;45563;-72
2022/12/11 10:44:21;;;;;;;;;11.00;9.33;;;;;24.44;32.45;100763.31;5045986;27;47313;-72
2022/12/11 10:47:01;;;;;;;;;10.33;10.33;;;;;24.46;32.27;100765.88;5063620;27;45532;-72
2022/12/11 10:49:29;;;;;;;;;10.00;8.67;;;;;24.44;32.27;100757.91;5066673;27;45810;-72
2022/12/11 10:51:55;;;;;;;;;7.67;7.67;;;;;24.49;32.48;100754.69;5063442;27;45462;-72
2022/12/11 10:54:32;;;;;;;;;10.67;8.67;;;;;24.52;32.43;100758.91;5064070;27;46182;-72
2022/12/11 10:57:00;;;;;;;;;9.67;7.33;;;;;24.52;32.17;100753.47;5042359;28;45588;-74
2022/12/11 10:59:37;;;;;;;;;13.33;9.00;;;;;24.54;32.23;100749.56;5066014;27;45518;-72
2022/12/11 11:02:05;;;;;;;;;10.00;9.00;;;;;24.51;32.17;100741.75;5047664;27;45772;-72
2022/12/11 11:04:35;;;;;;;;;9.33;9.33;;;;;24.55;32.21;100740.41;5067659;27;46119;-72
2022/12/11 11:07:12;;;;;;;;;12.67;10.00;;;;;24.55;32.27;100734.97;5062764;27;46867;-72
2022/12/11 11:09:38;;;;;;;;;9.33;8.67;;;;;24.57;32.54;100734.81;5062986;27;45446;-72
2022/12/11 11:12:16;;;;;;;;;9.00;9.00;;;;;24.57;32.17;100748.38;5062210;27;45508;-72
2022/12/11 11:14:41;;;;;;;;;12.67;8.67;;;;;24.55;32.38;100745.81;5062033;27;46434;-72
2022/12/11 11:17:15;;;;;;;;;10.00;9.00;;;;;24.54;32.05;100740.56;5059336;27;45668;-72
2022/12/11 11:19:40;;;;;;;;;10.00;9.00;;;;;24.56;31.81;100736.66;5062055;27;46807;-72
2022/12/11 11:22:15;;;;;;;;;8.67;8.67;;;;;24.55;32.16;100728.69;5058178;27;46552;-72
2022/12/11 11:24:45;;;;;;;;;10.00;10.00;;;;;24.53;32.11;100723.47;5066371;27;46632;-73
2022/12/11 11:27:33;;;;;;;;;10.00;7.00;;;;;24.56;32.10;100727.69;5035810;27;46305;-73
2022/12/11 11:30:15;;;;;;;;;7.00;7.00;;;;;24.54;32.03;100727.88;5063016;27;45522;-73
2022/12/11 11:32:41;;;;;;;;;8.00;8.00;;;;;24.56;32.07;100720.38;5061178;27;45463;-73
2022/12/11 11:35:12;;;;;;;;;8.33;8.33;;;;;24.59;32.25;100721.91;5066162;28;46081;-73
2022/12/11 11:37:40;;;;;;;;;9.33;8.00;;;;;24.56;31.72;100717.66;5067640;28;45586;-74
2022/12/11 11:40:20;;;;;;;;;8.00;8.00;;;;;24.59;32.20;100727.31;5069734;28;45689;-74
2022/12/11 11:43:00;;;;;;;;;11.67;10.00;;;;;24.61;32.55;100728.00;5054918;28;45763;-73